Airfield :
LOGIN :

Register | Disclaimer

   EN    FR    IT 

 










Legend :    VFR   Marginal VFR   IFR   Intensive IFR   Very Intensive IFR
Visi :
Ceiling :
>= 8 km
>= 3000ft
5 to 8 km
1000 to 3000 ft
1500m to 5 km
500 to 1000 ft
800 to 1500m
200 to 500 ft
< 800m
< 200 ft
Symbols :   Thunderstorms  Fog  Heavy snow  Heavy precipitations  Wind > 20 kt
SIGMETs :     Misc.  Thunderstorms  Icing  Turbulence  Mountain Waves  Volcanic Ashes







- Airport Elevation : 38 ft
- IATA code : BOH
- Download approach charts


EGHH - Bournemouth

CURRENT METAR :
  • 191950Z 23012KT 150V310 9999 FEW011 BKN029 18/16 Q1015

EXPIRED METARs :
  • 191920Z 24014KT 140V300 9999 FEW012 BKN031 18/16 Q1014
  • 191850Z 24014KT 150V300 9999 FEW012 BKN034 18/16 Q1014
  • 191820Z 24011KT 180V300 9999 FEW013 SCT038 18/16 Q1014
  • 191750Z 24014KT 190V300 9999 SCT015 18/16 Q1014

TAF TAF EGHH
Valid from the 19 at 18:00 until the 20 at 03:00 UTC


191659Z 1918/2003 23009KT 9999 FEW015 BKN020
TEMPO 1918/1921 23015G25KT
PROB40
TEMPO 1918/2003 7000 RADZ BKN014
ATIS : +44 1202 364 151
Met : +44 1202 364 158 (TAF)
No reported NOTAMs for that airfield.
2 SIGMETs reported for the London FIR (EGTT) :
 
Severe turbulence
EGTT SIGMET 13 VALID 191800/192100 EGRR
EGTT LONDON FIR SEV TURB FCST NW OF LINE N5347 W00530 - N5500 E00440 SFC/FL060 MOV N 10KT WKN=
Severe mountain waves
EGTT SIGMET 12 VALID 191700/192100 EGRR
EGTT LONDON FIR SEV MTW FCST WI N5500 W00530 - N5500 W00100 - N5500 E00020 - N5312 E00223 - N5147 W00338 - N5239 W00530 - N5500 W00530 FL030/250 STNR NC=



MET'MAP, your aeronautical weather chart ! - Copyright ORBIFLY December 2007 - Disclaimer

ORBIFLY MET'MAP TEAM :

Programming & Development : Alexandra Zaïnal
Concept & Development : Baudouin d'Aumeries
Co-Development & Prog : Marc-Olivier Méhu
Technical & hardware support : Manuel Goepfert

Contact : metmap@orbifly.com




SOURCES & CREDITS :

   NOAA